createdAt,value
2017-12-10T00:00:59.433Z,995.7
2017-12-10T00:01:59.441Z,995.66
2017-12-10T00:02:59.453Z,995.7
2017-12-10T00:03:59.462Z,995.65
2017-12-10T00:04:59.473Z,995.72
2017-12-10T00:05:59.483Z,995.72
2017-12-10T00:06:59.492Z,995.67
2017-12-10T00:07:59.502Z,995.65
2017-12-10T00:08:59.511Z,995.66
2017-12-10T00:09:59.522Z,995.62
2017-12-10T00:10:59.531Z,995.63
2017-12-10T00:11:59.542Z,995.62
2017-12-10T00:12:59.553Z,995.6
2017-12-10T00:13:59.594Z,995.57
2017-12-10T00:14:59.571Z,995.64
2017-12-10T00:15:59.584Z,995.61
2017-12-10T00:16:59.591Z,995.57
2017-12-10T00:17:59.602Z,995.51
2017-12-10T00:18:59.614Z,995.43
2017-12-10T00:19:59.622Z,995.45
2017-12-10T00:20:59.632Z,995.51
2017-12-10T00:21:59.640Z,995.39
2017-12-10T00:22:59.653Z,995.39
2017-12-10T00:23:59.662Z,995.37
2017-12-10T00:24:59.670Z,995.36
2017-12-10T00:25:59.680Z,995.38
2017-12-10T00:26:59.735Z,995.35
2017-12-10T00:27:59.701Z,995.34
2017-12-10T00:28:59.711Z,995.39
2017-12-10T00:29:59.725Z,995.34
2017-12-10T00:30:59.730Z,995.32
2017-12-10T00:31:59.742Z,995.37
2017-12-10T00:32:59.750Z,995.35
2017-12-10T00:33:59.762Z,995.34
2017-12-10T00:34:59.772Z,995.32
2017-12-10T00:35:59.781Z,995.36
2017-12-10T00:36:59.790Z,995.33
2017-12-10T00:37:59.801Z,995.29
2017-12-10T00:38:59.810Z,995.3
2017-12-10T00:39:59.821Z,995.27
2017-12-10T00:40:59.830Z,995.29
2017-12-10T00:41:59.841Z,995.34
2017-12-10T00:42:59.853Z,995.34
2017-12-10T00:43:59.862Z,995.33
2017-12-10T00:44:59.871Z,995.31
2017-12-10T00:45:59.880Z,995.29
2017-12-10T00:46:59.889Z,995.25
2017-12-10T00:47:59.899Z,995.28
2017-12-10T00:48:59.908Z,995.25
2017-12-10T00:49:59.917Z,995.18
2017-12-10T00:50:59.928Z,995.22
2017-12-10T00:51:59.939Z,995.23
2017-12-10T00:52:59.951Z,995.2
2017-12-10T00:53:59.958Z,995.18
2017-12-10T00:54:59.968Z,995.22
2017-12-10T00:55:59.977Z,995.21
2017-12-10T00:56:59.987Z,995.11
2017-12-10T00:57:59.999Z,995.17
2017-12-10T00:59:00.007Z,995.18
2017-12-10T01:00:00.016Z,995.1
2017-12-10T01:01:00.026Z,995.09
2017-12-10T01:02:00.037Z,995.08
2017-12-10T01:03:00.047Z,995.07
2017-12-10T01:04:00.056Z,995.04
2017-12-10T01:05:00.069Z,995.02
2017-12-10T01:06:00.076Z,995.07
2017-12-10T01:07:00.084Z,994.97
2017-12-10T01:08:00.097Z,995.02
2017-12-10T01:09:00.105Z,994.97
2017-12-10T01:10:00.115Z,994.97
2017-12-10T01:11:00.123Z,994.96
2017-12-10T01:12:00.138Z,994.91
2017-12-10T01:13:00.144Z,994.93
2017-12-10T01:14:00.154Z,994.88
2017-12-10T01:15:00.162Z,994.83
2017-12-10T01:16:00.172Z,994.87
2017-12-10T01:17:00.184Z,994.82
2017-12-10T01:18:00.192Z,994.88
2017-12-10T01:19:00.202Z,994.87
2017-12-10T01:20:00.211Z,994.92
2017-12-10T01:21:00.223Z,994.89
2017-12-10T01:22:00.239Z,994.82
2017-12-10T01:23:00.241Z,994.85
2017-12-10T01:24:00.251Z,994.81
2017-12-10T01:25:00.259Z,994.8
2017-12-10T01:26:00.269Z,994.81
2017-12-10T01:27:00.279Z,994.77
2017-12-10T01:28:00.291Z,994.74
2017-12-10T01:29:00.299Z,994.77
2017-12-10T01:30:00.308Z,994.79
2017-12-10T01:31:00.317Z,994.75
2017-12-10T01:32:00.328Z,994.71
2017-12-10T01:33:00.334Z,994.71
2017-12-10T01:34:00.345Z,994.7
2017-12-10T01:35:00.356Z,994.69
2017-12-10T01:36:00.371Z,994.69
2017-12-10T01:37:00.375Z,994.7
2017-12-10T01:38:00.385Z,994.67
2017-12-10T01:39:00.394Z,994.67
2017-12-10T01:40:00.406Z,994.67
2017-12-10T01:41:00.413Z,994.59
2017-12-10T01:42:00.421Z,994.61
2017-12-10T01:43:00.432Z,994.58
2017-12-10T01:44:00.473Z,994.55
2017-12-10T01:45:00.451Z,994.55
2017-12-10T01:46:00.466Z,994.53
2017-12-10T01:47:00.473Z,994.52
2017-12-10T01:48:00.481Z,994.48
2017-12-10T01:49:00.492Z,994.47
2017-12-10T01:50:00.503Z,994.4
2017-12-10T01:51:00.510Z,994.42
2017-12-10T01:52:00.530Z,994.37
2017-12-10T01:53:00.529Z,994.44
2017-12-10T01:54:00.538Z,994.4
2017-12-10T01:55:00.547Z,994.42
2017-12-10T01:56:00.560Z,994.39
2017-12-10T01:57:00.567Z,994.42
2017-12-10T01:58:00.581Z,994.41
2017-12-10T01:59:00.586Z,994.43
2017-12-10T02:00:00.601Z,994.34
2017-12-10T02:01:00.608Z,994.38
2017-12-10T02:02:00.628Z,994.35
2017-12-10T02:03:00.626Z,994.36
2017-12-10T02:04:00.638Z,994.31
2017-12-10T02:05:00.650Z,994.3
2017-12-10T02:06:00.661Z,994.31
2017-12-10T02:07:00.665Z,994.3
2017-12-10T02:08:00.679Z,994.29
2017-12-10T02:09:00.682Z,994.26
2017-12-10T02:10:00.704Z,994.25
2017-12-10T02:11:00.704Z,994.28
2017-12-10T02:12:00.712Z,994.23
2017-12-10T02:13:00.722Z,994.24
2017-12-10T02:14:00.732Z,994.21
2017-12-10T02:15:00.743Z,994.19
2017-12-10T02:16:00.761Z,994.16
2017-12-10T02:17:00.762Z,994.16
2017-12-10T02:18:00.770Z,994.13
2017-12-10T02:19:00.778Z,994.07
2017-12-10T02:20:00.797Z,994.07
2017-12-10T02:21:00.810Z,994.02
2017-12-10T02:22:00.809Z,994.03
2017-12-10T02:23:00.836Z,994.01
2017-12-10T02:24:00.828Z,994
2017-12-10T02:25:00.838Z,993.99
2017-12-10T02:26:00.851Z,993.98
2017-12-10T02:27:00.855Z,993.93
2017-12-10T02:28:00.872Z,993.94
2017-12-10T02:29:00.876Z,993.93
2017-12-10T02:30:00.891Z,993.94
2017-12-10T02:32:00.907Z,993.87
2017-12-10T02:33:00.913Z,993.84
2017-12-10T02:34:00.923Z,993.76
2017-12-10T02:35:00.931Z,993.75
2017-12-10T02:36:00.943Z,993.68
2017-12-10T02:37:00.951Z,993.73
2017-12-10T02:38:00.968Z,993.72
2017-12-10T02:39:00.972Z,993.68
2017-12-10T02:40:00.988Z,993.68
2017-12-10T02:41:00.988Z,993.69
2017-12-10T02:42:01.001Z,993.62
2017-12-10T02:43:01.009Z,993.67
2017-12-10T02:44:01.022Z,993.65
2017-12-10T02:45:01.027Z,993.64
2017-12-10T02:46:01.049Z,993.62
2017-12-10T02:47:01.047Z,993.63
2017-12-10T02:48:01.057Z,993.51
2017-12-10T02:49:01.067Z,993.53
2017-12-10T02:50:01.077Z,993.53
2017-12-10T02:51:01.093Z,993.46
2017-12-10T02:52:01.111Z,993.48
2017-12-10T02:53:01.107Z,993.49
2017-12-10T02:54:01.119Z,993.45
2017-12-10T02:55:01.123Z,993.46
2017-12-10T02:56:01.134Z,993.5
2017-12-10T02:57:01.143Z,993.45
2017-12-10T02:58:01.154Z,993.42
2017-12-10T02:59:01.161Z,993.43
2017-12-10T03:00:01.182Z,993.45
2017-12-10T03:01:01.180Z,993.45
2017-12-10T03:02:01.189Z,993.39
2017-12-10T03:03:01.204Z,993.37
2017-12-10T03:04:01.213Z,993.29
2017-12-10T03:05:01.221Z,993.34
2017-12-10T03:06:01.232Z,993.3
2017-12-10T03:07:01.245Z,993.26
2017-12-10T03:08:01.252Z,993.26
2017-12-10T03:09:01.261Z,993.21
2017-12-10T03:10:01.268Z,993.24
2017-12-10T03:11:01.335Z,993.25
2017-12-10T03:12:01.288Z,993.22
2017-12-10T03:13:01.297Z,993.24
2017-12-10T03:14:01.313Z,993.25
2017-12-10T03:15:01.317Z,993.29
2017-12-10T03:16:01.330Z,993.27
2017-12-10T03:17:01.335Z,993.13
2017-12-10T03:18:01.346Z,993.14
2017-12-10T03:19:01.354Z,993.12
2017-12-10T03:20:01.362Z,993.08
2017-12-10T03:21:01.391Z,993.04
2017-12-10T03:22:01.392Z,993.09
2017-12-10T03:23:01.392Z,992.98
2017-12-10T03:24:01.400Z,992.98
2017-12-10T03:25:01.414Z,992.98
2017-12-10T03:26:01.422Z,992.94
2017-12-10T03:27:01.434Z,992.96
2017-12-10T03:28:01.447Z,992.9
2017-12-10T03:29:01.450Z,992.91
2017-12-10T03:30:01.459Z,992.84
2017-12-10T03:31:01.479Z,992.89
2017-12-10T03:32:01.480Z,992.92
2017-12-10T03:33:01.489Z,992.87
2017-12-10T03:34:01.497Z,992.83
2017-12-10T03:35:01.507Z,992.81
2017-12-10T03:36:01.525Z,992.86
2017-12-10T03:37:01.528Z,992.78
2017-12-10T03:38:01.542Z,992.75
2017-12-10T03:39:01.548Z,992.72
2017-12-10T03:40:01.563Z,992.65
2017-12-10T03:41:01.568Z,992.66
2017-12-10T03:42:01.578Z,992.66
2017-12-10T03:43:01.587Z,992.64
2017-12-10T03:44:01.601Z,992.57
2017-12-10T03:45:01.614Z,992.54
2017-12-10T03:46:01.622Z,992.54
2017-12-10T03:47:01.627Z,992.5
2017-12-10T03:48:01.633Z,992.47
2017-12-10T03:49:01.644Z,992.49
2017-12-10T03:50:01.654Z,992.52
2017-12-10T03:51:01.664Z,992.46
2017-12-10T03:52:01.684Z,992.38
2017-12-10T03:53:01.682Z,992.44
2017-12-10T03:54:01.692Z,992.42
2017-12-10T03:55:01.704Z,992.4
2017-12-10T03:56:01.775Z,992.41
2017-12-10T03:57:01.722Z,992.4
2017-12-10T03:58:01.732Z,992.37
2017-12-10T03:59:01.739Z,992.41
2017-12-10T04:00:01.754Z,992.36
2017-12-10T04:01:01.760Z,992.35
2017-12-10T04:02:01.771Z,992.44
2017-12-10T04:03:01.779Z,992.48
2017-12-10T04:04:01.788Z,992.49
2017-12-10T04:05:01.799Z,992.44
2017-12-10T04:06:01.809Z,992.47
2017-12-10T04:07:01.822Z,992.38
2017-12-10T04:08:01.828Z,992.4
2017-12-10T04:09:01.838Z,992.38
2017-12-10T04:10:01.847Z,992.35
2017-12-10T04:11:01.856Z,992.35
2017-12-10T04:12:01.867Z,992.34
2017-12-10T04:13:01.879Z,992.32
2017-12-10T04:14:01.885Z,992.28
2017-12-10T04:15:01.896Z,992.22
2017-12-10T04:16:01.904Z,992.24
2017-12-10T04:17:01.915Z,992.1
2017-12-10T04:18:01.924Z,992.17
2017-12-10T04:19:01.936Z,992.07
2017-12-10T04:20:01.945Z,992.05
2017-12-10T04:21:01.956Z,992.02
2017-12-10T04:22:01.965Z,992.03
2017-12-10T04:23:01.975Z,992.02
2017-12-10T04:24:01.984Z,992.03
2017-12-10T04:25:01.990Z,992.05
2017-12-10T04:26:02.000Z,992.04
2017-12-10T04:27:02.020Z,992.03
2017-12-10T04:28:02.021Z,992.09
2017-12-10T04:29:02.030Z,992.08
2017-12-10T04:30:02.039Z,992.06
2017-12-10T04:31:02.049Z,992.07
2017-12-10T04:32:02.060Z,992.06
2017-12-10T04:33:02.068Z,992.04
2017-12-10T04:34:02.082Z,992.05
2017-12-10T04:35:02.089Z,991.98
2017-12-10T04:36:02.097Z,992.01
2017-12-10T04:37:02.108Z,992.04
2017-12-10T04:38:02.116Z,992
2017-12-10T04:39:02.127Z,992.02
2017-12-10T04:40:02.138Z,992
2017-12-10T04:41:02.149Z,991.99
2017-12-10T04:42:02.155Z,992.04
2017-12-10T04:43:02.164Z,991.94
2017-12-10T04:44:02.174Z,991.99
2017-12-10T04:45:02.186Z,991.99
2017-12-10T04:46:02.196Z,991.95
2017-12-10T04:47:02.206Z,991.92
2017-12-10T04:48:02.215Z,991.91
2017-12-10T04:49:02.224Z,991.87
2017-12-10T04:50:02.234Z,991.85
2017-12-10T04:51:02.243Z,991.85
2017-12-10T04:52:02.252Z,991.85
2017-12-10T04:53:02.262Z,991.78
2017-12-10T04:54:02.269Z,991.76
2017-12-10T04:55:02.282Z,991.73
2017-12-10T04:56:02.291Z,991.73
2017-12-10T04:57:02.304Z,991.72
2017-12-10T04:58:02.310Z,991.74
2017-12-10T04:59:02.318Z,991.72
2017-12-10T05:00:02.330Z,991.69
2017-12-10T05:01:02.343Z,991.71
2017-12-10T05:02:02.348Z,991.66
2017-12-10T05:03:02.358Z,991.66
2017-12-10T05:04:02.366Z,991.64
2017-12-10T05:05:02.376Z,991.64
2017-12-10T05:06:02.387Z,991.63
2017-12-10T05:07:02.396Z,991.57
2017-12-10T05:08:02.408Z,991.57
2017-12-10T05:09:02.416Z,991.59
2017-12-10T05:10:02.426Z,991.52
2017-12-10T05:11:02.437Z,991.53
2017-12-10T05:12:02.448Z,991.51
2017-12-10T05:13:02.454Z,991.53
2017-12-10T05:14:02.465Z,991.51
2017-12-10T05:15:02.484Z,991.41
2017-12-10T05:16:02.482Z,991.39
2017-12-10T05:17:02.494Z,991.4
2017-12-10T05:18:02.503Z,991.35
2017-12-10T05:19:02.513Z,991.38
2017-12-10T05:20:02.521Z,991.34
2017-12-10T05:21:02.543Z,991.3
2017-12-10T05:22:02.541Z,991.31
2017-12-10T05:23:02.551Z,991.27
2017-12-10T05:24:02.561Z,991.21
2017-12-10T05:25:02.570Z,991.25
2017-12-10T05:26:02.582Z,991.19
2017-12-10T05:27:02.590Z,991.18
2017-12-10T05:28:02.598Z,991.18
2017-12-10T05:29:02.609Z,991.11
2017-12-10T05:30:02.619Z,991.14
2017-12-10T05:31:02.626Z,991.13
2017-12-10T05:32:02.647Z,991.08
2017-12-10T05:33:02.647Z,991.08
2017-12-10T05:34:02.656Z,991.14
2017-12-10T05:35:02.669Z,991.11
2017-12-10T05:36:02.676Z,991.12
2017-12-10T05:37:02.688Z,991.14
2017-12-10T05:38:02.695Z,991.11
2017-12-10T05:39:02.706Z,991.09
2017-12-10T05:40:02.714Z,991.01
2017-12-10T05:41:02.725Z,991.03
2017-12-10T05:42:02.733Z,990.97
2017-12-10T05:43:02.742Z,991.02
2017-12-10T05:44:02.754Z,991
2017-12-10T05:45:02.761Z,990.99
2017-12-10T05:46:02.771Z,990.96
2017-12-10T05:47:02.784Z,990.92
2017-12-10T05:48:02.796Z,990.81
2017-12-10T05:49:02.799Z,990.8
2017-12-10T05:50:02.814Z,990.79
2017-12-10T05:51:02.819Z,990.73
2017-12-10T05:52:02.830Z,990.69
2017-12-10T05:53:02.838Z,990.7
2017-12-10T05:54:02.850Z,990.7
2017-12-10T05:55:02.858Z,990.63
2017-12-10T05:56:02.868Z,990.62
2017-12-10T05:57:02.877Z,990.56
2017-12-10T05:58:02.887Z,990.57
2017-12-10T05:59:02.898Z,990.56
2017-12-10T06:00:02.907Z,990.48
2017-12-10T06:01:02.915Z,990.36
2017-12-10T06:02:02.926Z,990.4
2017-12-10T06:03:02.938Z,990.33
2017-12-10T06:04:02.945Z,990.31
2017-12-10T06:05:02.965Z,990.38
2017-12-10T06:06:02.966Z,990.36
2017-12-10T06:07:02.974Z,990.35
2017-12-10T06:08:02.982Z,990.23
2017-12-10T06:09:02.995Z,990.29
2017-12-10T06:10:03.003Z,990.24
2017-12-10T06:11:03.010Z,990.35
2017-12-10T06:12:03.020Z,990.26
2017-12-10T06:13:03.032Z,990.29
2017-12-10T06:14:03.044Z,990.22
2017-12-10T06:15:03.049Z,990.24
2017-12-10T06:16:03.058Z,990.26
2017-12-10T06:17:03.068Z,990.21
2017-12-10T06:18:03.085Z,990.18
2017-12-10T06:19:03.089Z,990.15
2017-12-10T06:20:03.100Z,990.13
2017-12-10T06:21:03.107Z,990.11
2017-12-10T06:22:03.116Z,990.06
2017-12-10T06:23:03.129Z,990.04
2017-12-10T06:24:03.136Z,990.05
2017-12-10T06:25:03.146Z,990.08
2017-12-10T06:26:03.155Z,990.05
2017-12-10T06:27:03.165Z,990.06
2017-12-10T06:28:03.176Z,990.04
2017-12-10T06:29:03.185Z,990.05
2017-12-10T06:30:03.192Z,990.02
2017-12-10T06:31:03.203Z,989.98
2017-12-10T06:32:03.214Z,989.98
2017-12-10T06:33:03.220Z,989.97
2017-12-10T06:34:03.232Z,989.94
2017-12-10T06:35:03.248Z,989.91
2017-12-10T06:36:03.252Z,989.84
2017-12-10T06:37:03.341Z,989.85
2017-12-10T06:38:03.268Z,989.85
2017-12-10T06:39:03.280Z,989.88
2017-12-10T06:40:03.289Z,989.86
2017-12-10T06:41:03.297Z,989.89
2017-12-10T06:42:03.565Z,989.85
2017-12-10T06:43:03.317Z,989.8
2017-12-10T06:44:03.325Z,989.7
2017-12-10T06:45:03.336Z,989.73
2017-12-10T06:46:03.346Z,989.65
2017-12-10T06:47:03.355Z,989.64
2017-12-10T06:48:03.372Z,989.6
2017-12-10T06:49:03.373Z,989.63
2017-12-10T06:50:03.383Z,989.66
2017-12-10T06:51:03.392Z,989.59
2017-12-10T06:52:03.404Z,989.64
2017-12-10T06:53:03.414Z,989.57
2017-12-10T06:54:03.421Z,989.64
2017-12-10T06:55:03.437Z,989.59
2017-12-10T06:56:03.442Z,989.57
2017-12-10T06:57:03.450Z,989.55
2017-12-10T06:58:03.460Z,989.48
2017-12-10T06:59:03.472Z,989.44
2017-12-10T07:00:03.478Z,989.46
2017-12-10T07:01:03.490Z,989.33
2017-12-10T07:02:03.498Z,989.39
2017-12-10T07:03:03.509Z,989.34
2017-12-10T07:04:03.518Z,989.35
2017-12-10T07:05:03.527Z,989.34
2017-12-10T07:06:03.572Z,989.27
2017-12-10T07:07:03.545Z,989.29
2017-12-10T07:08:03.554Z,989.23
2017-12-10T07:09:03.564Z,989.17
2017-12-10T07:10:03.574Z,989.16
2017-12-10T07:11:03.583Z,989.17
2017-12-10T07:12:03.592Z,989.07
2017-12-10T07:13:03.602Z,989
2017-12-10T07:14:03.616Z,989.01
2017-12-10T07:15:03.622Z,988.96
2017-12-10T07:16:03.632Z,988.98
2017-12-10T07:17:03.640Z,988.97
2017-12-10T07:18:03.651Z,988.88
2017-12-10T07:19:03.666Z,988.86
2017-12-10T07:20:03.671Z,988.89
2017-12-10T07:21:03.677Z,988.82
2017-12-10T07:22:03.688Z,988.82
2017-12-10T07:23:03.699Z,988.76
2017-12-10T07:24:03.707Z,988.79
2017-12-10T07:25:03.719Z,988.76
2017-12-10T07:26:03.726Z,988.75
2017-12-10T07:27:03.749Z,988.71
2017-12-10T07:28:03.746Z,988.77
2017-12-10T07:29:03.756Z,988.7
2017-12-10T07:30:03.776Z,988.66
2017-12-10T07:31:03.786Z,988.7
2017-12-10T07:32:03.784Z,988.67
2017-12-10T07:33:03.793Z,988.65
2017-12-10T07:34:03.804Z,988.65
2017-12-10T07:35:03.812Z,988.65
2017-12-10T07:36:03.821Z,988.58
2017-12-10T07:37:03.831Z,988.58
2017-12-10T07:38:03.843Z,988.59
2017-12-10T07:39:03.850Z,988.55
2017-12-10T07:40:03.859Z,988.58
2017-12-10T07:41:03.870Z,988.58
2017-12-10T07:42:03.883Z,988.51
2017-12-10T07:43:03.920Z,988.47
2017-12-10T07:44:03.900Z,988.43
2017-12-10T07:45:03.910Z,988.39
2017-12-10T07:46:03.918Z,988.38
2017-12-10T07:47:03.927Z,988.42
2017-12-10T07:48:03.937Z,988.4
2017-12-10T07:49:03.948Z,988.39
2017-12-10T07:50:03.956Z,988.31
2017-12-10T07:51:03.966Z,988.34
2017-12-10T07:52:03.977Z,988.34
2017-12-10T07:53:03.984Z,988.21
2017-12-10T07:54:03.996Z,988.24
2017-12-10T07:55:04.004Z,988.21
2017-12-10T07:56:04.015Z,988.17
2017-12-10T07:57:04.024Z,988.13
2017-12-10T07:58:04.034Z,988.14
2017-12-10T07:59:04.042Z,988.14
2017-12-10T08:00:04.053Z,988.14
2017-12-10T08:01:04.061Z,988.09
2017-12-10T08:02:04.073Z,988.09
2017-12-10T08:03:04.082Z,988.09
2017-12-10T08:04:04.090Z,988.06
2017-12-10T08:05:04.100Z,987.99
2017-12-10T08:06:04.112Z,987.9
2017-12-10T08:07:04.125Z,987.89
2017-12-10T08:08:04.138Z,987.92
2017-12-10T08:09:04.138Z,987.92
2017-12-10T08:10:04.150Z,987.88
2017-12-10T08:11:04.161Z,987.83
2017-12-10T08:12:04.169Z,987.78
2017-12-10T08:13:04.180Z,987.75
2017-12-10T08:14:04.189Z,987.77
2017-12-10T08:15:04.198Z,987.72
2017-12-10T08:16:04.208Z,987.7
2017-12-10T08:17:04.218Z,987.68
2017-12-10T08:18:04.247Z,987.69
2017-12-10T08:19:04.240Z,987.64
2017-12-10T08:20:04.246Z,987.63
2017-12-10T08:21:04.256Z,987.56
2017-12-10T08:22:04.266Z,987.59
2017-12-10T08:23:04.275Z,987.58
2017-12-10T08:24:04.290Z,987.55
2017-12-10T08:25:04.296Z,987.57
2017-12-10T08:26:04.306Z,987.51
2017-12-10T08:27:04.314Z,987.52
2017-12-10T08:28:04.325Z,987.48
2017-12-10T08:29:04.338Z,987.48
2017-12-10T08:30:04.343Z,987.4
2017-12-10T08:31:04.354Z,987.4
2017-12-10T08:32:04.363Z,987.41
2017-12-10T08:33:04.374Z,987.42
2017-12-10T08:34:04.382Z,987.38
2017-12-10T08:35:04.395Z,987.35
2017-12-10T08:36:04.404Z,987.36
2017-12-10T08:37:04.447Z,987.41
2017-12-10T08:38:04.434Z,987.35
2017-12-10T08:39:04.432Z,987.32
2017-12-10T08:40:04.442Z,987.34
2017-12-10T08:41:04.470Z,987.31
2017-12-10T08:42:04.463Z,987.27
2017-12-10T08:43:04.478Z,987.3
2017-12-10T08:44:04.480Z,987.27
2017-12-10T08:45:04.492Z,987.27
2017-12-10T08:46:04.502Z,987.22
2017-12-10T08:47:04.512Z,987.25
2017-12-10T08:48:04.522Z,987.23
2017-12-10T08:49:04.531Z,987.22
2017-12-10T08:50:04.547Z,987.18
2017-12-10T08:51:04.550Z,987.22
2017-12-10T08:52:04.559Z,987.15
2017-12-10T08:53:04.570Z,987.15
2017-12-10T08:54:04.793Z,987.13
2017-12-10T08:55:04.591Z,987.04
2017-12-10T08:56:04.600Z,987.05
2017-12-10T08:57:04.611Z,987.06
2017-12-10T08:58:04.619Z,987.06
2017-12-10T08:59:04.628Z,986.98
2017-12-10T09:00:04.641Z,986.92
2017-12-10T09:01:04.655Z,986.93
2017-12-10T09:02:04.661Z,987.03
2017-12-10T09:03:04.669Z,986.97
2017-12-10T09:04:04.679Z,986.95
2017-12-10T09:05:04.690Z,986.88
2017-12-10T09:06:04.701Z,986.86
2017-12-10T09:07:04.708Z,986.78
2017-12-10T09:08:04.721Z,986.86
2017-12-10T09:09:04.731Z,986.74
2017-12-10T09:10:04.740Z,986.71
2017-12-10T09:11:04.749Z,986.72
2017-12-10T09:12:04.760Z,986.69
2017-12-10T09:13:04.770Z,986.65
2017-12-10T09:14:04.779Z,986.62
2017-12-10T09:15:04.790Z,986.49
2017-12-10T09:16:04.800Z,986.5
2017-12-10T09:17:04.808Z,986.5
2017-12-10T09:18:04.819Z,986.46
2017-12-10T09:19:04.829Z,986.36
2017-12-10T09:20:04.841Z,986.33
2017-12-10T09:21:04.850Z,986.25
2017-12-10T09:22:04.862Z,986.21
2017-12-10T09:23:04.930Z,986.16
2017-12-10T09:24:04.879Z,986.09
2017-12-10T09:25:04.889Z,986.09
2017-12-10T09:26:04.898Z,986
2017-12-10T09:27:04.909Z,986
2017-12-10T09:28:04.918Z,986.02
2017-12-10T09:29:04.931Z,985.97
2017-12-10T09:30:04.941Z,985.98
2017-12-10T09:31:04.951Z,985.91
2017-12-10T09:32:04.959Z,985.91
2017-12-10T09:33:04.971Z,985.83
2017-12-10T09:34:04.982Z,985.84
2017-12-10T09:35:04.992Z,985.65
2017-12-10T09:36:05.002Z,985.72
2017-12-10T09:37:05.010Z,985.7
2017-12-10T09:38:05.023Z,985.6
2017-12-10T09:39:05.081Z,985.59
2017-12-10T09:40:05.091Z,985.64
2017-12-10T09:41:05.149Z,985.55
2017-12-10T09:42:05.063Z,985.46
2017-12-10T09:43:05.071Z,985.44
2017-12-10T09:44:05.089Z,985.37
2017-12-10T09:45:05.093Z,985.31
2017-12-10T09:46:05.101Z,985.21
2017-12-10T09:47:05.110Z,985.2
2017-12-10T09:48:05.123Z,985.14
2017-12-10T09:49:05.134Z,985.17
2017-12-10T09:50:05.143Z,985.13
2017-12-10T09:51:05.153Z,985.16
2017-12-10T09:52:05.166Z,985.16
2017-12-10T09:53:05.176Z,985.13
2017-12-10T09:54:05.181Z,985.05
2017-12-10T09:55:05.193Z,984.99
2017-12-10T09:56:05.203Z,984.96
2017-12-10T09:57:05.214Z,984.95
2017-12-10T09:58:05.225Z,984.91
2017-12-10T09:59:05.238Z,984.88
2017-12-10T10:00:05.246Z,984.82
2017-12-10T10:01:05.255Z,984.75
2017-12-10T10:02:05.269Z,984.75
2017-12-10T10:03:05.277Z,984.78
2017-12-10T10:04:05.286Z,984.71
2017-12-10T10:05:05.296Z,984.76
2017-12-10T10:06:05.317Z,984.69
2017-12-10T10:07:05.317Z,984.63
2017-12-10T10:08:05.326Z,984.63
2017-12-10T10:09:05.337Z,984.57
2017-12-10T10:10:05.349Z,984.55
2017-12-10T10:11:05.358Z,984.56
2017-12-10T10:12:05.368Z,984.52
2017-12-10T10:13:05.382Z,984.49
2017-12-10T10:14:05.391Z,984.54
2017-12-10T10:15:05.400Z,984.45
2017-12-10T10:16:05.411Z,984.47
2017-12-10T10:17:05.420Z,984.42
2017-12-10T10:18:05.431Z,984.37
2017-12-10T10:19:05.438Z,984.39
2017-12-10T10:20:05.450Z,984.41
2017-12-10T10:21:05.464Z,984.36
2017-12-10T10:22:05.471Z,984.25
2017-12-10T10:23:05.482Z,984.25
2017-12-10T10:24:05.491Z,984.2
2017-12-10T10:25:05.501Z,984.11
2017-12-10T10:26:05.511Z,984.06
2017-12-10T10:27:05.523Z,984.08
2017-12-10T10:28:05.539Z,984.07
2017-12-10T10:29:05.546Z,984.03
2017-12-10T10:30:05.552Z,984.01
2017-12-10T10:31:05.565Z,983.92
2017-12-10T10:32:05.577Z,983.94
2017-12-10T10:33:05.588Z,983.88
2017-12-10T10:34:05.594Z,983.83
2017-12-10T10:35:05.607Z,983.81
2017-12-10T10:36:05.619Z,983.66
2017-12-10T10:37:05.627Z,983.66
2017-12-10T10:38:05.636Z,983.66
2017-12-10T10:39:05.647Z,983.66
2017-12-10T10:40:05.658Z,983.64
2017-12-10T10:41:05.667Z,983.55
2017-12-10T10:42:05.680Z,983.52
2017-12-10T10:43:05.688Z,983.43
2017-12-10T10:44:05.699Z,983.45
2017-12-10T10:45:05.709Z,983.36
2017-12-10T10:46:05.726Z,983.25
2017-12-10T10:47:05.730Z,983.17
2017-12-10T10:48:05.743Z,983.06
2017-12-10T10:49:05.753Z,982.98
2017-12-10T10:50:05.761Z,982.94
2017-12-10T10:51:05.772Z,982.85
2017-12-10T10:52:05.782Z,982.86
2017-12-10T10:53:05.792Z,982.85
2017-12-10T10:54:05.805Z,982.79
2017-12-10T10:55:05.816Z,982.78
2017-12-10T10:56:05.823Z,982.68
2017-12-10T10:57:05.836Z,982.71
2017-12-10T10:58:05.847Z,982.61
2017-12-10T10:59:05.857Z,982.51
2017-12-10T11:00:05.866Z,982.44
2017-12-10T11:01:05.883Z,982.45
2017-12-10T11:02:05.889Z,982.45
2017-12-10T11:03:05.897Z,982.47
2017-12-10T11:04:05.908Z,982.42
2017-12-10T11:05:05.922Z,982.31
2017-12-10T11:06:05.929Z,982.25
2017-12-10T11:07:05.941Z,982.23
2017-12-10T11:08:05.950Z,982.19
2017-12-10T11:09:05.960Z,982.11
2017-12-10T11:10:05.973Z,982.17
2017-12-10T11:11:05.982Z,982.21
2017-12-10T11:12:05.993Z,982.08
2017-12-10T11:13:06.002Z,982.04
2017-12-10T11:14:06.017Z,982.05
2017-12-10T11:15:06.028Z,982.04
2017-12-10T11:16:06.034Z,982.05
2017-12-10T11:17:06.046Z,981.95
2017-12-10T11:18:06.059Z,981.9
2017-12-10T11:19:06.069Z,981.83
2017-12-10T11:20:06.077Z,981.85
2017-12-10T11:21:06.090Z,981.8
2017-12-10T11:22:06.098Z,981.74
2017-12-10T11:23:06.108Z,981.79
2017-12-10T11:24:06.121Z,981.72
2017-12-10T11:25:06.131Z,981.73
2017-12-10T11:26:06.150Z,981.66
2017-12-10T11:27:06.152Z,981.59
2017-12-10T11:28:06.162Z,981.54
2017-12-10T11:29:06.176Z,981.44
2017-12-10T11:30:06.184Z,981.44
2017-12-10T11:31:06.194Z,981.4
2017-12-10T11:32:06.208Z,981.32
2017-12-10T11:33:06.217Z,981.27
2017-12-10T11:34:06.228Z,981.18
2017-12-10T11:35:06.237Z,981.11
2017-12-10T11:36:06.248Z,981.07
2017-12-10T11:37:06.263Z,980.97
2017-12-10T11:38:06.272Z,980.99
2017-12-10T11:39:06.281Z,980.89
2017-12-10T11:40:06.290Z,980.82
2017-12-10T11:41:06.304Z,980.74
2017-12-10T11:42:06.314Z,980.7
2017-12-10T11:43:06.326Z,980.66
2017-12-10T11:44:06.336Z,980.65
2017-12-10T11:45:06.347Z,980.71
2017-12-10T11:46:06.359Z,980.68
2017-12-10T11:47:06.368Z,980.67
2017-12-10T11:48:06.378Z,980.63
2017-12-10T11:49:06.389Z,980.57
2017-12-10T11:50:06.410Z,980.56
2017-12-10T11:51:06.410Z,980.54
2017-12-10T11:52:06.426Z,980.48
2017-12-10T11:53:06.432Z,980.45
2017-12-10T11:54:06.444Z,980.31
2017-12-10T11:55:06.453Z,980.31
2017-12-10T11:56:06.464Z,980.29
2017-12-10T11:57:06.477Z,980.31
2017-12-10T11:58:06.485Z,980.21
2017-12-10T11:59:06.497Z,980.22
2017-12-10T12:00:06.509Z,980.2
2017-12-10T12:01:06.518Z,980.19
2017-12-10T12:02:06.528Z,980.11
2017-12-10T12:03:06.541Z,980.07
2017-12-10T12:04:06.551Z,979.98
2017-12-10T12:05:06.560Z,979.97
2017-12-10T12:06:06.572Z,979.95
2017-12-10T12:07:06.583Z,979.87
2017-12-10T12:08:06.593Z,979.83
2017-12-10T12:09:06.605Z,979.77
2017-12-10T12:10:06.618Z,979.65
2017-12-10T12:11:06.625Z,979.6
2017-12-10T12:12:06.640Z,979.54
2017-12-10T12:13:06.647Z,979.48
2017-12-10T12:14:06.659Z,979.51
2017-12-10T12:15:06.671Z,979.41
2017-12-10T12:16:06.679Z,979.38
2017-12-10T12:17:06.690Z,979.43
2017-12-10T12:18:06.702Z,979.36
2017-12-10T12:19:06.713Z,979.33
2017-12-10T12:20:06.722Z,979.28
2017-12-10T12:21:06.735Z,979.2
2017-12-10T12:22:06.747Z,979.25
2017-12-10T12:23:06.757Z,979.21
2017-12-10T12:24:06.767Z,979.18
2017-12-10T12:25:06.778Z,979.15
2017-12-10T12:26:06.797Z,979.1
2017-12-10T12:27:06.799Z,979.12
2017-12-10T12:28:06.809Z,979.04
2017-12-10T12:29:06.820Z,979.04
2017-12-10T12:30:06.831Z,978.95
2017-12-10T12:31:06.892Z,978.91
2017-12-10T12:32:06.855Z,978.87